Main page
METAR-TAF:

METAR-TAF

Airports :

Miles City Airport

Miles City, Montana, United States

latitude: 46-25-41N, longitude: 105-53-11W, elevation: 2627 ft

Current weather observation

The report was made 1 hour and 10 minutes ago, at 21:53 UTC
Wind 17 mph from the Northeast
Temperature 91°F
Humidity 30%
Pressure 30.07 in. Hg
Visibility: 10 miles
Clear sky

METAR: KMLS 092153Z AUTO 04015KT 10SM CLR 33/13 A3007 RMK AO2 SLP160 T03280133

Time: 17:03 (23:03 UTC)

Forecast

The report was made 5 hours and 43 minutes ago, at 17:20 UTC
Forecast valid from 09 at 18 UTC to 10 at 18 UTC
Wind 14 mph from the Northeast
Visibility: 6 miles
Clear sky
From 10 at 1200 UTC
Wind 16 mph from the East
Visibility: 6 miles
Clear sky

TAF: KMLS 091720Z 0918/1018 05012KT P6SM SKC FM101200 08014KT P6SM SKC

Weather observations and forecasts of more than 4000 airports (METAR and TAF reports).

The available stations are represented by yellow and red dots on the map.

Hover mouse over dot to see the name of the station.

Then click to see weather observations and forecasts.

To change the map : click on the green buttons with a black cross to zoom in, on the green button with a dash to zoom out, or on the green arrows for adjacent maps.


METAR-TAF: